Terminal Aerodrome Forecast
Issued by NWS

Home | Current Version | Previous Version | Text Only | Print | Product List | Glossary On
Versions: 1 2 3 4 5 6 7 8 9 10 11 12 13 14 15 16
185
FTUS45 KRIW 110407 AAA
TAFCPR
TAF AMD
KCPR 110407Z 1104/1124 02015KT P6SM VCSH SCT007 OVC040
      TEMPO 1104/1106 BKN007
     FM110600 35007KT P6SM VCSH BKN028
     FM111700 23015G25KT P6SM SCT100=

USA.gov is the U.S. government's official web portal to all federal, state and local government web resources and services.